createdAt,value
2019-02-21T00:00:32.202Z,101686.23
2019-02-21T00:03:02.754Z,101690.52
2019-02-21T00:05:33.214Z,101686.14
2019-02-21T00:08:03.749Z,101692.22
2019-02-21T00:10:34.386Z,101697.31
2019-02-21T00:13:05.051Z,101692.64
2019-02-21T00:15:35.692Z,101698.62
2019-02-21T00:18:06.363Z,101694.23
2019-02-21T00:20:36.997Z,101699.92
2019-02-21T00:23:07.458Z,101697.84
2019-02-21T00:25:38.105Z,101701.22
2019-02-21T00:28:08.692Z,101702.13
2019-02-21T00:30:39.132Z,101704.92
2019-02-21T00:33:09.689Z,101706.61
2019-02-21T00:35:40.419Z,101703.23
2019-02-21T00:38:11.111Z,101703.33
2019-02-21T00:40:41.744Z,101700.02
2019-02-21T00:43:12.398Z,101698.71
2019-02-21T00:45:43.038Z,101700.83
2019-02-21T00:48:13.699Z,101700.44
2019-02-21T00:50:45.440Z,101690.33
2019-02-21T00:53:16.164Z,101705.93
2019-02-21T00:55:46.797Z,101702.03
2019-02-21T00:58:17.262Z,101702.94
2019-02-21T01:00:47.828Z,101705.64
2019-02-21T01:03:18.425Z,101704.72
2019-02-21T01:05:49.063Z,101706.31
2019-02-21T01:08:19.731Z,101701.64
2019-02-21T01:10:50.180Z,101701.02
2019-02-21T01:13:20.638Z,101706.61
2019-02-21T01:15:51.169Z,101707.13
2019-02-21T01:18:21.680Z,101706.94
2019-02-21T01:20:52.122Z,101708.23
2019-02-21T01:23:22.629Z,101708.23
2019-02-21T01:25:53.003Z,101706.94
2019-02-21T01:28:23.463Z,101704.73
2019-02-21T01:30:57.004Z,101697.22
2019-02-21T01:33:25.987Z,101698.84
2019-02-21T01:35:56.416Z,101699.53
2019-02-21T01:38:26.872Z,101698.52
2019-02-21T01:40:57.225Z,101696.45
2019-02-21T01:43:27.732Z,101696.16
2019-02-21T01:45:59.293Z,101701.02
2019-02-21T01:48:29.744Z,101700.54
2019-02-21T01:51:00.260Z,101696.64
2019-02-21T01:53:31.145Z,101693.94
2019-02-21T01:56:01.574Z,101696.83
2019-02-21T01:58:32.000Z,101702.36
2019-02-21T02:01:08.478Z,101697.84
2019-02-21T02:03:35.050Z,101695.14
2019-02-21T02:06:05.532Z,101693.36
2019-02-21T02:08:35.966Z,101695.05
2019-02-21T02:11:06.325Z,101691.86
2019-02-21T02:13:36.897Z,101688.64
2019-02-21T02:16:07.338Z,101694.03
2019-02-21T02:18:37.720Z,101688.64
2019-02-21T02:21:08.297Z,101686.75
2019-02-21T02:23:38.743Z,101685.64
2019-02-21T02:26:09.108Z,101684.87
2019-02-21T02:28:39.492Z,101689.25
2019-02-21T02:31:22.162Z,101689.25
2019-02-21T02:33:42.071Z,101683.34
2019-02-21T02:36:12.590Z,101686.04
2019-02-21T02:39:13.579Z,101678.05
2019-02-21T02:41:54.404Z,101680.64
2019-02-21T02:44:24.846Z,101677.85
2019-02-21T02:46:55.198Z,101680.73
2019-02-21T02:49:25.663Z,101677.66
2019-02-21T02:51:56.153Z,101679.56
2019-02-21T02:54:26.503Z,101672.88
2019-02-21T02:56:56.850Z,101672.25
2019-02-21T02:59:40.068Z,101668.64
2019-02-21T03:01:59.470Z,101673.64
2019-02-21T03:04:29.937Z,101670.56
2019-02-21T03:07:00.410Z,101676.56
2019-02-21T03:09:30.877Z,101673.63
2019-02-21T03:12:01.382Z,101675.84
2019-02-21T03:14:31.816Z,101676.55
2019-02-21T03:17:03.305Z,101675.92
2019-02-21T03:19:33.701Z,101670.95
2019-02-21T03:22:04.084Z,101675.52
2019-02-21T03:24:34.518Z,101674.23
2019-02-21T03:27:04.938Z,101672.83
2019-02-21T03:29:35.407Z,101671.05
2019-02-21T03:32:05.911Z,101672.62
2019-02-21T03:34:37.954Z,101675.13
2019-02-21T03:37:08.314Z,101677.62
2019-02-21T03:39:38.696Z,101672.71
2019-02-21T03:42:09.056Z,101669.83
2019-02-21T03:44:39.566Z,101670.54
2019-02-21T03:47:10.015Z,101673.00
2019-02-21T03:49:40.560Z,101673.00
2019-02-21T03:52:10.990Z,101668.13
2019-02-21T03:54:41.427Z,101673.61
2019-02-21T03:57:11.777Z,101673.61
2019-02-21T03:59:42.231Z,101674.80
2019-02-21T04:02:12.652Z,101672.10
2019-02-21T04:04:44.109Z,101672.39
2019-02-21T04:07:14.524Z,101664.30
2019-02-21T04:09:45.020Z,101664.09
2019-02-21T04:12:15.535Z,101666.09
2019-02-21T04:14:45.989Z,101662.20
2019-02-21T04:17:16.435Z,101664.37
2019-02-21T04:19:46.929Z,101666.20
2019-02-21T04:22:17.401Z,101661.39
2019-02-21T04:24:47.813Z,101660.80
2019-02-21T04:27:18.204Z,101661.97
2019-02-21T04:29:48.656Z,101661.68
2019-02-21T04:32:19.091Z,101656.39
2019-02-21T04:34:49.466Z,101663.89
2019-02-21T04:37:19.832Z,101657.99
2019-02-21T04:39:50.303Z,101655.21
2019-02-21T04:42:20.684Z,101654.02
2019-02-21T04:44:52.662Z,101656.04
2019-02-21T04:47:23.086Z,101656.14
2019-02-21T04:49:53.621Z,101654.13
2019-02-21T04:52:24.120Z,101656.73
2019-02-21T04:54:54.806Z,101657.74
2019-02-21T04:57:25.247Z,101651.16
2019-02-21T04:59:55.634Z,101649.95
2019-02-21T05:02:29.467Z,101645.86
2019-02-21T05:04:58.205Z,101655.53
2019-02-21T05:07:28.698Z,101642.16
2019-02-21T05:09:59.082Z,101647.55
2019-02-21T05:12:29.444Z,101646.73
2019-02-21T05:14:59.891Z,101645.66
2019-02-21T05:17:30.391Z,101642.25
2019-02-21T05:20:00.926Z,101646.95
2019-02-21T05:22:31.539Z,101647.04
2019-02-21T05:25:01.932Z,101645.94
2019-02-21T05:27:33.933Z,101649.03
2019-02-21T05:30:06.023Z,101652.92
2019-02-21T05:32:41.390Z,101647.24
2019-02-21T05:35:13.505Z,101643.55
2019-02-21T05:37:48.437Z,101649.45
2019-02-21T05:40:32.675Z,101645.94
2019-02-21T05:43:16.763Z,101644.02
2019-02-21T05:46:04.891Z,101648.02
2019-02-21T05:48:55.200Z,101651.42
2019-02-21T05:51:30.029Z,101656.80
2019-02-21T05:54:05.305Z,101652.90
2019-02-21T05:56:37.834Z,101651.22
2019-02-21T05:59:22.677Z,101648.13
2019-02-21T06:01:57.415Z,101647.61
2019-02-21T06:04:29.566Z,101653.61
2019-02-21T06:07:17.877Z,101657.69
2019-02-21T06:09:59.080Z,101659.19
2019-02-21T06:12:33.961Z,101651.58
2019-02-21T06:15:21.629Z,101656.57
2019-02-21T06:18:10.303Z,101658.28
2019-02-21T06:20:45.496Z,101665.34
2019-02-21T06:23:17.697Z,101670.15
2019-02-21T06:25:59.159Z,101671.94
2019-02-21T06:28:32.857Z,101672.02
2019-02-21T06:31:05.841Z,101671.06
2019-02-21T06:33:37.155Z,101676.42
2019-02-21T06:36:07.942Z,101675.83
2019-02-21T06:38:38.836Z,101674.04
2019-02-21T06:41:10.068Z,101675.08
2019-02-21T06:43:41.079Z,101665.70
2019-02-21T06:46:13.778Z,101660.92
2019-02-21T06:48:44.067Z,101662.95
2019-02-21T06:51:15.158Z,101669.93
2019-02-21T06:53:45.852Z,101673.70
2019-02-21T06:56:16.400Z,101669.30
2019-02-21T06:58:47.364Z,101664.31
2019-02-21T07:01:25.789Z,101667.41
2019-02-21T07:03:50.629Z,101665.81
2019-02-21T07:06:31.586Z,101665.73
2019-02-21T07:08:54.282Z,101660.66
2019-02-21T07:11:25.431Z,101660.34
2019-02-21T07:13:56.300Z,101667.14
2019-02-21T07:16:27.037Z,101664.77
2019-02-21T07:18:57.748Z,101671.25
2019-02-21T07:21:28.689Z,101672.08
2019-02-21T07:23:59.264Z,101671.98
2019-02-21T07:26:29.700Z,101669.77
2019-02-21T07:29:00.397Z,101668.56
2019-02-21T07:31:32.646Z,101668.38
2019-02-21T07:34:03.767Z,101665.55
2019-02-21T07:36:34.290Z,101668.67
2019-02-21T07:39:16.873Z,101665.16
2019-02-21T07:41:41.574Z,101666.41
2019-02-21T07:44:12.347Z,101671.55
2019-02-21T07:46:43.176Z,101675.36
2019-02-21T07:49:13.643Z,101675.75
2019-02-21T07:51:44.074Z,101668.42
2019-02-21T07:54:14.545Z,101670.58
2019-02-21T07:56:45.045Z,101663.05
2019-02-21T07:59:15.746Z,101666.34
2019-02-21T08:01:46.260Z,101664.97
2019-02-21T08:04:18.141Z,101673.72
2019-02-21T08:06:48.854Z,101672.22
2019-02-21T08:09:19.272Z,101675.12
2019-02-21T08:11:49.777Z,101674.44
2019-02-21T08:14:20.404Z,101667.33
2019-02-21T08:16:50.767Z,101664.32
2019-02-21T08:19:21.332Z,101663.20
2019-02-21T08:21:51.799Z,101665.89
2019-02-21T08:24:22.400Z,101662.18
2019-02-21T08:26:52.761Z,101663.21
2019-02-21T08:29:23.208Z,101664.02
2019-02-21T08:31:54.225Z,101660.57
2019-02-21T08:34:26.319Z,101666.17
2019-02-21T08:36:57.035Z,101666.84
2019-02-21T08:39:27.773Z,101661.83
2019-02-21T08:41:58.582Z,101661.88
2019-02-21T08:44:29.624Z,101665.70
2019-02-21T08:47:00.145Z,101660.39
2019-02-21T08:49:30.670Z,101668.48
2019-02-21T08:52:01.624Z,101662.97
2019-02-21T08:54:33.894Z,101668.40
2019-02-21T08:57:04.820Z,101664.31
2019-02-21T08:59:35.409Z,101663.95
2019-02-21T09:02:07.244Z,101656.73
2019-02-21T09:04:38.380Z,101655.50
2019-02-21T09:07:09.150Z,101660.14
2019-02-21T09:09:40.085Z,101659.94
2019-02-21T09:12:10.679Z,101656.27
2019-02-21T09:14:41.202Z,101660.41
2019-02-21T09:17:11.730Z,101652.09
2019-02-21T09:19:42.097Z,101661.39
2019-02-21T09:22:12.589Z,101659.31
2019-02-21T09:24:42.973Z,101665.02
2019-02-21T09:27:13.441Z,101660.44
2019-02-21T09:29:46.784Z,101653.41
2019-02-21T09:32:17.214Z,101662.55
2019-02-21T09:34:50.237Z,101658.03
2019-02-21T09:37:19.725Z,101663.42
2019-02-21T09:39:50.117Z,101664.63
2019-02-21T09:42:20.479Z,101660.34
2019-02-21T09:44:50.994Z,101666.84
2019-02-21T09:47:21.344Z,101661.55
2019-02-21T09:49:51.731Z,101668.52
2019-02-21T09:52:22.083Z,101667.22
2019-02-21T09:54:52.499Z,101666.02
2019-02-21T09:57:22.839Z,101673.23
2019-02-21T09:59:53.213Z,101666.02
2019-02-21T10:02:23.547Z,101664.53
2019-02-21T10:05:04.195Z,101659.25
2019-02-21T10:07:27.037Z,101660.64
2019-02-21T10:09:57.422Z,101657.22
2019-02-21T10:12:27.758Z,101660.23
2019-02-21T10:14:58.145Z,101658.33
2019-02-21T10:17:28.756Z,101652.08
2019-02-21T10:19:59.144Z,101646.58
2019-02-21T10:22:29.473Z,101646.97
2019-02-21T10:24:59.925Z,101649.82
2019-02-21T10:27:30.401Z,101647.73
2019-02-21T10:30:01.890Z,101644.99
2019-02-21T10:32:33.501Z,101644.66
2019-02-21T10:35:04.733Z,101637.20
2019-02-21T10:37:35.140Z,101643.91
2019-02-21T10:40:08.421Z,101636.05
2019-02-21T10:42:39.842Z,101634.83
2019-02-21T10:45:15.192Z,101636.73
2019-02-21T10:47:45.605Z,101630.20
2019-02-21T10:50:17.724Z,101631.44
2019-02-21T10:52:48.683Z,101623.14
2019-02-21T10:55:19.062Z,101626.67
2019-02-21T10:57:49.534Z,101613.73
2019-02-21T11:00:24.275Z,101609.11
2019-02-21T11:02:54.757Z,101608.22
2019-02-21T11:05:25.200Z,101604.07
2019-02-21T11:07:55.531Z,101600.19
2019-02-21T11:10:30.518Z,101602.78
2019-02-21T11:13:01.000Z,101603.75
2019-02-21T11:15:32.974Z,101592.67
2019-02-21T11:18:03.306Z,101598.67
2019-02-21T11:20:34.030Z,101584.42
2019-02-21T11:23:06.684Z,101589.91
2019-02-21T11:25:37.118Z,101589.73
2019-02-21T11:28:07.535Z,101580.92
2019-02-21T11:30:37.978Z,101581.92
2019-02-21T11:33:08.310Z,101577.14
2019-02-21T11:35:38.702Z,101580.92
2019-02-21T11:38:09.042Z,101584.01
2019-02-21T11:40:39.558Z,101581.48
2019-02-21T11:43:09.976Z,101580.28
2019-02-21T11:45:40.372Z,101577.05
2019-02-21T11:48:11.787Z,101567.20
2019-02-21T11:50:42.164Z,101565.82
2019-02-21T11:53:12.511Z,101570.16
2019-02-21T11:55:42.907Z,101559.39
2019-02-21T11:58:14.304Z,101550.76
2019-02-21T12:00:44.701Z,101551.19
2019-02-21T12:03:15.046Z,101549.41
2019-02-21T12:05:45.439Z,101548.55
2019-02-21T12:08:17.348Z,101548.55
2019-02-21T12:10:47.800Z,101559.66
2019-02-21T12:13:18.152Z,101553.31
2019-02-21T12:15:48.521Z,101550.03
2019-02-21T12:18:18.861Z,101552.70
2019-02-21T12:20:49.253Z,101548.50
2019-02-21T12:23:19.599Z,101556.52
2019-02-21T12:25:49.952Z,101542.86
2019-02-21T12:28:20.359Z,101542.91
2019-02-21T12:30:50.787Z,101540.08
2019-02-21T12:33:21.125Z,101538.05
2019-02-21T12:35:51.483Z,101534.96
2019-02-21T12:38:21.827Z,101533.18
2019-02-21T12:40:52.253Z,101524.90
2019-02-21T12:43:22.599Z,101528.45
2019-02-21T12:45:56.286Z,101520.16
2019-02-21T12:48:26.622Z,101526.28
2019-02-21T12:50:57.069Z,101523.64
2019-02-21T12:53:28.319Z,101525.84
2019-02-21T12:55:58.807Z,101523.51
2019-02-21T12:58:29.145Z,101512.97
2019-02-21T13:00:59.590Z,101517.61
2019-02-21T13:03:29.924Z,101520.82
2019-02-21T13:06:00.300Z,101530.06
2019-02-21T13:08:30.641Z,101522.85
2019-02-21T13:11:01.165Z,101524.94
2019-02-21T13:13:31.588Z,101535.33
2019-02-21T13:16:01.997Z,101531.43
2019-02-21T13:18:32.435Z,101539.16
2019-02-21T13:21:02.827Z,101533.70
2019-02-21T13:23:33.308Z,101537.94
2019-02-21T13:26:03.676Z,101535.42
2019-02-21T13:28:34.078Z,101542.80
2019-02-21T13:31:04.454Z,101533.56
2019-02-21T13:33:34.806Z,101529.84
2019-02-21T13:36:06.348Z,101533.31
2019-02-21T13:38:36.679Z,101532.19
2019-02-21T13:41:07.065Z,101538.69
2019-02-21T13:43:37.465Z,101531.71
2019-02-21T13:46:07.917Z,101526.67
2019-02-21T13:48:38.334Z,101534.96
2019-02-21T13:51:08.779Z,101537.04
2019-02-21T13:53:39.200Z,101535.66
2019-02-21T13:56:09.582Z,101547.41
2019-02-21T13:58:39.906Z,101539.08
2019-02-21T14:01:10.404Z,101531.96
2019-02-21T14:03:40.815Z,101531.92
2019-02-21T14:06:11.303Z,101529.41
2019-02-21T14:08:41.685Z,101526.80
2019-02-21T14:11:12.061Z,101539.82
2019-02-21T14:13:42.421Z,101535.66
2019-02-21T14:16:12.794Z,101532.44
2019-02-21T14:18:43.202Z,101527.50
2019-02-21T14:21:13.580Z,101523.42
2019-02-21T14:23:44.056Z,101525.15
2019-02-21T14:26:14.442Z,101529.19
2019-02-21T14:28:44.775Z,101528.01
2019-02-21T14:31:15.340Z,101524.46
2019-02-21T14:33:45.670Z,101517.65
2019-02-21T14:36:19.109Z,101516.95
2019-02-21T14:38:48.103Z,101529.01
2019-02-21T14:41:18.473Z,101526.80
2019-02-21T14:43:48.912Z,101521.33
2019-02-21T14:46:19.291Z,101533.73
2019-02-21T14:48:49.704Z,101523.45
2019-02-21T14:51:20.069Z,101519.72
2019-02-21T14:53:50.423Z,101524.20
2019-02-21T14:56:20.873Z,101517.12
2019-02-21T14:58:51.285Z,101510.23
2019-02-21T15:01:21.669Z,101507.89
2019-02-21T15:03:52.007Z,101507.23
2019-02-21T15:06:26.985Z,101508.84
2019-02-21T15:08:54.547Z,101505.16
2019-02-21T15:11:25.076Z,101499.13
2019-02-21T15:13:55.437Z,101493.14
2019-02-21T15:16:26.022Z,101489.67
2019-02-21T15:18:56.930Z,101493.41
2019-02-21T15:21:27.386Z,101499.43
2019-02-21T15:23:57.790Z,101500.86
2019-02-21T15:26:28.312Z,101502.34
2019-02-21T15:29:00.052Z,101503.46
2019-02-21T15:31:31.790Z,101499.73
2019-02-21T15:34:02.257Z,101510.75
2019-02-21T15:36:38.279Z,101510.31
2019-02-21T15:39:05.531Z,101505.02
2019-02-21T15:41:37.386Z,101502.42
2019-02-21T15:44:07.729Z,101501.43
2019-02-21T15:46:38.181Z,101493.83
2019-02-21T15:49:08.514Z,101496.31
2019-02-21T15:51:38.902Z,101500.34
2019-02-21T15:54:09.248Z,101502.94
2019-02-21T15:56:39.693Z,101494.22
2019-02-21T15:59:10.110Z,101493.05
2019-02-21T16:01:47.487Z,101493.05
2019-02-21T16:04:13.597Z,101487.84
2019-02-21T16:06:51.055Z,101493.53
2019-02-21T16:09:16.771Z,101488.33
2019-02-21T16:11:54.476Z,101488.02
2019-02-21T16:14:28.019Z,101491.53
2019-02-21T16:16:58.420Z,101488.84
2019-02-21T16:19:28.762Z,101491.23
2019-02-21T16:21:59.145Z,101478.52
2019-02-21T16:24:29.483Z,101480.13
2019-02-21T16:26:59.886Z,101484.77
2019-02-21T16:29:30.284Z,101478.73
2019-02-21T16:32:00.664Z,101478.66
2019-02-21T16:34:32.987Z,101477.27
2019-02-21T16:37:03.166Z,101476.78
2019-02-21T16:39:33.494Z,101473.58
2019-02-21T16:42:03.879Z,101482.30
2019-02-21T16:44:34.300Z,101478.95
2019-02-21T16:47:05.801Z,101481.08
2019-02-21T16:49:36.423Z,101483.38
2019-02-21T16:52:06.871Z,101481.17
2019-02-21T16:54:37.204Z,101482.16
2019-02-21T16:57:07.651Z,101480.30
2019-02-21T16:59:38.056Z,101486.41
2019-02-21T17:02:09.050Z,101477.61
2019-02-21T17:04:39.474Z,101484.59
2019-02-21T17:07:14.379Z,101483.81
2019-02-21T17:09:41.962Z,101481.52
2019-02-21T17:12:12.342Z,101481.82
2019-02-21T17:14:42.675Z,101484.85
2019-02-21T17:17:13.065Z,101485.24
2019-02-21T17:19:43.401Z,101486.45
2019-02-21T17:22:13.791Z,101483.38
2019-02-21T17:24:44.201Z,101483.38
2019-02-21T17:27:14.579Z,101485.07
2019-02-21T17:29:44.999Z,101485.55
2019-02-21T17:32:15.383Z,101481.17
2019-02-21T17:34:45.792Z,101471.66
2019-02-21T17:37:24.679Z,101475.23
2019-02-21T17:39:48.286Z,101477.92
2019-02-21T17:42:18.684Z,101475.31
2019-02-21T17:44:49.032Z,101483.12
2019-02-21T17:47:19.425Z,101480.22
2019-02-21T17:49:49.832Z,101476.40
2019-02-21T17:52:20.229Z,101493.41
2019-02-21T17:54:50.640Z,101480.08
2019-02-21T17:57:21.014Z,101473.58
2019-02-21T17:59:51.437Z,101480.56
2019-02-21T18:02:21.955Z,101476.83
2019-02-21T18:04:52.305Z,101472.05
2019-02-21T18:07:22.692Z,101477.66
2019-02-21T18:09:53.035Z,101483.85
2019-02-21T18:12:23.558Z,101465.94
2019-02-21T18:14:53.889Z,101469.02
2019-02-21T18:17:26.460Z,101472.84
2019-02-21T18:19:56.414Z,101473.27
2019-02-21T18:22:26.796Z,101460.73
2019-02-21T18:24:57.274Z,101461.95
2019-02-21T18:27:27.674Z,101457.14
2019-02-21T18:29:58.011Z,101447.94
2019-02-21T18:32:28.480Z,101455.18
2019-02-21T18:34:58.892Z,101464.91
2019-02-21T18:37:29.294Z,101457.19
2019-02-21T18:39:59.637Z,101451.98
2019-02-21T18:42:30.028Z,101449.46
2019-02-21T18:45:00.434Z,101461.09
2019-02-21T18:47:30.906Z,101450.59
2019-02-21T18:50:01.239Z,101456.44
2019-02-21T18:52:31.678Z,101449.38
2019-02-21T18:55:02.011Z,101452.76
2019-02-21T18:57:32.470Z,101454.48
2019-02-21T19:00:03.232Z,101452.28
2019-02-21T19:02:35.207Z,101452.67
2019-02-21T19:05:07.450Z,101456.58
2019-02-21T19:07:37.903Z,101454.06
2019-02-21T19:10:12.244Z,101454.15
2019-02-21T19:12:42.719Z,101452.28
2019-02-21T19:15:13.307Z,101446.69
2019-02-21T19:17:43.760Z,101452.28
2019-02-21T19:20:15.745Z,101455.79
2019-02-21T19:22:46.112Z,101444.56
2019-02-21T19:25:16.918Z,101445.04
2019-02-21T19:27:47.304Z,101447.42
2019-02-21T19:30:45.270Z,101444.00
2019-02-21T19:33:16.754Z,101444.09
2019-02-21T19:35:48.556Z,101446.24
2019-02-21T19:38:19.122Z,101451.14
2019-02-21T19:40:49.532Z,101435.18
2019-02-21T19:43:19.995Z,101442.20
2019-02-21T19:45:50.409Z,101448.80
2019-02-21T19:48:20.787Z,101438.95
2019-02-21T19:50:51.378Z,101441.16
2019-02-21T19:53:21.837Z,101438.95
2019-02-21T19:55:52.171Z,101429.53
2019-02-21T19:58:24.825Z,101432.13
2019-02-21T20:00:54.723Z,101428.31
2019-02-21T20:03:28.255Z,101434.91
2019-02-21T20:05:59.097Z,101419.45
2019-02-21T20:08:29.558Z,101421.06
2019-02-21T20:10:59.969Z,101418.16
2019-02-21T20:13:30.724Z,101422.14
2019-02-21T20:16:01.067Z,101431.51
2019-02-21T20:18:31.755Z,101432.41
2019-02-21T20:21:02.248Z,101437.70
2019-02-21T20:23:32.616Z,101430.06
2019-02-21T20:26:03.107Z,101433.97
2019-02-21T20:28:33.629Z,101439.17
2019-02-21T20:31:03.974Z,101451.38
2019-02-21T20:33:34.503Z,101447.98
2019-02-21T20:36:04.907Z,101451.97
2019-02-21T20:38:35.430Z,101446.68
2019-02-21T20:41:05.776Z,101447.08
2019-02-21T20:43:36.298Z,101443.08
2019-02-21T20:46:06.710Z,101444.70
2019-02-21T20:48:37.158Z,101445.34
2019-02-21T20:51:07.560Z,101439.80
2019-02-21T20:53:38.472Z,101442.41
2019-02-21T20:56:08.877Z,101445.32
2019-02-21T20:58:39.404Z,101447.10
2019-02-21T21:01:12.454Z,101455.34
2019-02-21T21:03:42.514Z,101448.75
2019-02-21T21:06:12.905Z,101449.23
2019-02-21T21:08:46.527Z,101451.66
2019-02-21T21:11:15.453Z,101456.87
2019-02-21T21:13:46.085Z,101450.44
2019-02-21T21:16:16.695Z,101452.56
2019-02-21T21:18:47.284Z,101454.66
2019-02-21T21:21:17.645Z,101458.98
2019-02-21T21:23:48.111Z,101448.23
2019-02-21T21:26:18.524Z,101458.64
2019-02-21T21:28:49.603Z,101456.55
2019-02-21T21:31:20.441Z,101450.05
2019-02-21T21:33:50.920Z,101451.35
2019-02-21T21:36:23.959Z,101453.61
2019-02-21T21:38:54.540Z,101458.81
2019-02-21T21:41:41.272Z,101456.30
2019-02-21T21:44:16.188Z,101457.69
2019-02-21T21:46:47.051Z,101454.21
2019-02-21T21:49:25.268Z,101453.47
2019-02-21T21:51:57.191Z,101447.27
2019-02-21T21:54:27.582Z,101460.80
2019-02-21T21:56:57.987Z,101458.28
2019-02-21T21:59:28.375Z,101461.28
2019-02-21T22:01:58.716Z,101463.48
2019-02-21T22:04:29.262Z,101457.55
2019-02-21T22:06:59.598Z,101460.49
2019-02-21T22:09:29.997Z,101458.38
2019-02-21T22:12:00.612Z,101458.06
2019-02-21T22:14:31.265Z,101457.63
2019-02-21T22:17:01.889Z,101456.76
2019-02-21T22:19:32.564Z,101461.54
2019-02-21T22:22:03.174Z,101463.75
2019-02-21T22:24:33.826Z,101465.44
2019-02-21T22:27:04.449Z,101470.25
2019-02-21T22:29:35.049Z,101475.16
2019-02-21T22:32:05.705Z,101472.55
2019-02-21T22:34:36.409Z,101476.77
2019-02-21T22:37:07.101Z,101477.77
2019-02-21T22:39:37.815Z,101472.03
2019-02-21T22:42:08.430Z,101478.97
2019-02-21T22:44:39.086Z,101486.36
2019-02-21T22:47:09.637Z,101484.66
2019-02-21T22:49:40.515Z,101495.47
2019-02-21T22:52:11.117Z,101494.26
2019-02-21T22:54:41.783Z,101499.47
2019-02-21T22:57:12.399Z,101502.16
2019-02-21T22:59:43.102Z,101490.44
2019-02-21T23:02:13.756Z,101498.25
2019-02-21T23:04:50.550Z,101495.64
2019-02-21T23:07:27.035Z,101497.77
2019-02-21T23:09:57.700Z,101498.25
2019-02-21T23:12:29.420Z,101500.06
2019-02-21T23:15:00.103Z,101505.75
2019-02-21T23:17:30.769Z,101506.27
2019-02-21T23:20:01.493Z,101499.75
2019-02-21T23:22:33.106Z,101495.42
2019-02-21T23:25:04.362Z,101502.36
2019-02-21T23:27:34.971Z,101504.23
2019-02-21T23:30:08.754Z,101501.70
2019-02-21T23:32:39.447Z,101503.83
2019-02-21T23:35:11.684Z,101505.92
2019-02-21T23:37:42.306Z,101509.74
2019-02-21T23:40:12.898Z,101510.96
2019-02-21T23:42:43.520Z,101513.08
2019-02-21T23:45:14.171Z,101521.59
2019-02-21T23:47:49.749Z,101520.04
2019-02-21T23:50:17.456Z,101518.39
2019-02-21T23:52:48.071Z,101529.93
2019-02-21T23:55:18.659Z,101531.23
2019-02-21T23:57:49.343Z,101537.48
